Time,TemperatureF,DewpointF,PressureIn,WindDirection,WindDirectionDegrees,WindSpeedMPH,WindSpeedGustMPH,Humidity,HourlyPrecipIn,Conditions,Clouds,dailyrainin,SoftwareType,DateUTC
2013-02-01 00:04:00,50.2,44.9,29.89,South,180,2.7,-999.0,82,-99.99,,,0.00,Acu-Link.com,2013-02-01 08:04:00,
2013-02-01 00:19:00,51.4,45.1,29.89,SSW,202,1.7,-999.0,79,-99.99,,,0.00,Acu-Link.com,2013-02-01 08:19:00,
2013-02-01 00:34:00,48.0,43.7,29.88,ENE,67,1.1,-999.0,85,-99.99,,,0.00,Acu-Link.com,2013-02-01 08:34:00,
2013-02-01 00:50:00,47.5,44.1,29.89,NE,45,0.0,-999.0,88,-99.99,,,0.00,Acu-Link.com,2013-02-01 08:50:00,
2013-02-01 01:17:00,46.9,44.4,29.88,NNW,337,0.0,-999.0,91,-99.99,,,0.00,Acu-Link.com,2013-02-01 09:17:00,
2013-02-01 01:32:00,48.2,44.5,29.89,SSW,202,1.7,-999.0,87,-99.99,,,0.00,Acu-Link.com,2013-02-01 09:32:00,
2013-02-01 01:47:00,46.8,44.0,29.89,South,180,0.0,-999.0,90,-99.99,,,0.00,Acu-Link.com,2013-02-01 09:47:00,
2013-02-01 02:02:00,46.2,44.3,29.88,South,180,0.0,-999.0,93,-99.99,,,0.00,Acu-Link.com,2013-02-01 10:02:00,
2013-02-01 02:17:00,46.6,44.4,29.88,South,180,0.0,-999.0,92,-99.99,,,0.00,Acu-Link.com,2013-02-01 10:17:00,
2013-02-01 02:32:00,46.6,44.1,29.89,West,270,0.0,-999.0,91,-99.99,,,0.00,Acu-Link.com,2013-02-01 10:32:00,
2013-02-01 02:48:00,47.3,43.6,29.89,SE,135,0.0,-999.0,87,-99.99,,,0.00,Acu-Link.com,2013-02-01 10:48:00,
2013-02-01 03:03:00,48.6,43.7,29.89,South,180,1.7,-999.0,83,-99.99,,,0.00,Acu-Link.com,2013-02-01 11:03:00,
2013-02-01 03:18:00,48.6,43.0,29.89,SSE,157,1.1,-999.0,81,-99.99,,,0.00,Acu-Link.com,2013-02-01 11:18:00,
2013-02-01 03:33:00,49.1,42.9,29.89,SE,135,1.7,-999.0,79,-99.99,,,0.00,Acu-Link.com,2013-02-01 11:33:00,
2013-02-01 03:48:00,48.6,42.7,29.88,South,180,2.2,-999.0,80,-99.99,,,0.00,Acu-Link.com,2013-02-01 11:48:00,
2013-02-01 04:04:00,48.2,42.6,29.89,South,180,2.2,-999.0,81,-99.99,,,0.00,Acu-Link.com,2013-02-01 12:04:00,
2013-02-01 04:19:00,47.5,42.6,29.89,SSE,157,2.2,-999.0,83,-99.99,,,0.00,Acu-Link.com,2013-02-01 12:19:00,
2013-02-01 04:34:00,48.0,42.8,29.89,ENE,67,1.1,-999.0,82,-99.99,,,0.00,Acu-Link.com,2013-02-01 12:34:00,
2013-02-01 04:49:00,49.1,43.2,29.89,South,180,2.7,-999.0,80,-99.99,,,0.00,Acu-Link.com,2013-02-01 12:49:00,
2013-02-01 05:05:00,48.7,43.1,29.89,South,180,2.2,-999.0,81,-99.99,,,0.00,Acu-Link.com,2013-02-01 13:05:00,
2013-02-01 05:20:00,49.1,43.2,29.88,South,180,1.1,-999.0,80,-99.99,,,0.00,Acu-Link.com,2013-02-01 13:20:00,
2013-02-01 05:35:00,49.1,43.2,29.88,South,180,1.7,-999.0,80,-99.99,,,0.00,Acu-Link.com,2013-02-01 13:35:00,
2013-02-01 05:50:00,48.9,43.3,29.87,South,180,1.7,-999.0,81,-99.99,,,0.00,Acu-Link.com,2013-02-01 13:50:00,
2013-02-01 06:05:00,48.4,42.8,29.89,South,180,0.0,-999.0,81,-99.99,,,0.00,Acu-Link.com,2013-02-01 14:05:00,
2013-02-01 06:21:00,48.2,43.3,29.89,SSW,202,1.1,-999.0,83,-99.99,,,0.00,Acu-Link.com,2013-02-01 14:21:00,
2013-02-01 06:36:00,48.2,43.3,29.88,South,180,1.1,-999.0,83,-99.99,,,0.00,Acu-Link.com,2013-02-01 14:36:00,
2013-02-01 06:51:00,47.8,43.2,29.89,South,180,1.7,-999.0,84,-99.99,,,0.00,Acu-Link.com,2013-02-01 14:51:00,
2013-02-01 07:06:00,47.3,43.0,29.90,South,180,0.0,-999.0,85,-99.99,,,0.00,Acu-Link.com,2013-02-01 15:06:00,
2013-02-01 07:21:00,47.3,43.3,29.88,SSW,202,2.2,-999.0,86,-99.99,,,0.00,Acu-Link.com,2013-02-01 15:21:00,
2013-02-01 07:37:00,49.1,43.8,29.89,South,180,2.2,-999.0,82,-99.99,,,0.00,Acu-Link.com,2013-02-01 15:37:00,
2013-02-01 07:52:00,47.8,43.8,29.89,SW,225,0.0,-999.0,86,-99.99,,,0.00,Acu-Link.com,2013-02-01 15:52:00,
2013-02-01 08:07:00,48.4,43.8,29.90,SSE,157,1.1,-999.0,84,-99.99,,,0.00,Acu-Link.com,2013-02-01 16:07:00,
2013-02-01 08:22:00,48.6,43.4,29.90,SW,225,0.0,-999.0,82,-99.99,,,0.00,Acu-Link.com,2013-02-01 16:22:00,
2013-02-01 08:37:00,49.1,42.9,29.90,West,270,1.1,-999.0,79,-99.99,,,0.00,Acu-Link.com,2013-02-01 16:37:00,
2013-02-01 08:53:00,49.5,42.9,29.90,NNE,22,2.2,-999.0,78,-99.99,,,0.00,Acu-Link.com,2013-02-01 16:53:00,
2013-02-01 09:08:00,50.5,42.9,29.90,North,0,1.1,-999.0,75,-99.99,,,0.00,Acu-Link.com,2013-02-01 17:08:00,
2013-02-01 09:23:00,51.6,43.9,29.90,SSW,202,1.7,-999.0,75,-99.99,,,0.00,Acu-Link.com,2013-02-01 17:23:00,
2013-02-01 09:38:00,52.2,43.8,29.91,SSE,157,0.0,-999.0,73,-99.99,,,0.00,Acu-Link.com,2013-02-01 17:38:00,
2013-02-01 09:53:00,53.1,43.2,29.91,NNW,337,2.7,-999.0,69,-99.99,,,0.00,Acu-Link.com,2013-02-01 17:53:00,
2013-02-01 10:09:00,54.3,42.8,29.90,NNW,337,1.7,-999.0,65,-99.99,,,0.00,Acu-Link.com,2013-02-01 18:09:00,
2013-02-01 10:24:00,56.7,43.4,29.90,NE,45,1.7,-999.0,61,-99.99,,,0.00,Acu-Link.com,2013-02-01 18:24:00,
2013-02-01 10:39:00,57.0,43.7,29.90,NNE,22,0.0,-999.0,61,-99.99,,,0.00,Acu-Link.com,2013-02-01 18:39:00,
2013-02-01 10:54:00,57.2,42.6,29.90,NNE,22,2.2,-999.0,58,-99.99,,,0.00,Acu-Link.com,2013-02-01 18:54:00,
2013-02-01 11:10:00,58.3,43.1,29.90,ENE,67,2.2,-999.0,57,-99.99,,,0.00,Acu-Link.com,2013-02-01 19:10:00,
2013-02-01 11:25:00,58.8,42.7,29.90,SW,225,1.7,-999.0,55,-99.99,,,0.00,Acu-Link.com,2013-02-01 19:25:00,
2013-02-01 11:40:00,59.0,42.9,29.89,NE,45,3.2,-999.0,55,-99.99,,,0.00,Acu-Link.com,2013-02-01 19:40:00,
2013-02-01 11:55:00,59.7,42.5,29.88,NNE,22,2.7,-999.0,53,-99.99,,,0.00,Acu-Link.com,2013-02-01 19:55:00,
2013-02-01 12:10:00,60.1,42.9,29.87,NNE,22,2.7,-999.0,53,-99.99,,,0.00,Acu-Link.com,2013-02-01 20:10:00,
2013-02-01 12:26:00,61.2,42.9,29.86,NE,45,4.7,-999.0,51,-99.99,,,0.00,Acu-Link.com,2013-02-01 20:26:00,
2013-02-01 12:41:00,61.9,44.1,29.86,ENE,67,5.3,-999.0,52,-99.99,,,0.00,Acu-Link.com,2013-02-01 20:41:00,
2013-02-01 12:56:00,62.8,44.9,29.86,NNE,22,3.7,-999.0,52,-99.99,,,0.00,Acu-Link.com,2013-02-01 20:56:00,
2013-02-01 13:11:00,63.3,44.9,29.85,ENE,67,2.2,-999.0,51,-99.99,,,0.00,Acu-Link.com,2013-02-01 21:11:00,
2013-02-01 13:26:00,63.7,45.2,29.84,ENE,67,2.7,-999.0,51,-99.99,,,0.00,Acu-Link.com,2013-02-01 21:26:00,
2013-02-01 13:42:00,64.2,44.6,29.83,NNE,22,2.2,-999.0,49,-99.99,,,0.00,Acu-Link.com,2013-02-01 21:42:00,
2013-02-01 13:57:00,64.8,45.2,29.82,ESE,112,3.7,-999.0,49,-99.99,,,0.00,Acu-Link.com,2013-02-01 21:57:00,
2013-02-01 14:12:00,65.3,45.1,29.83,ESE,112,2.2,-999.0,48,-99.99,,,0.00,Acu-Link.com,2013-02-01 22:12:00,
2013-02-01 14:27:00,65.3,44.0,29.82,NE,45,2.7,-999.0,46,-99.99,,,0.00,Acu-Link.com,2013-02-01 22:27:00,
2013-02-01 14:42:00,65.3,45.1,29.83,ESE,112,3.2,-999.0,48,-99.99,,,0.00,Acu-Link.com,2013-02-01 22:42:00,
2013-02-01 14:58:00,66.2,44.2,29.82,NE,45,2.2,-999.0,45,-99.99,,,0.00,Acu-Link.com,2013-02-01 22:58:00,
2013-02-01 15:13:00,66.4,45.0,29.82,East,90,2.2,-999.0,46,-99.99,,,0.00,Acu-Link.com,2013-02-01 23:13:00,
2013-02-01 15:28:00,66.4,44.4,29.82,NNE,22,1.7,-999.0,45,-99.99,,,0.00,Acu-Link.com,2013-02-01 23:28:00,
2013-02-01 15:43:00,65.1,43.8,29.82,NNE,22,2.2,-999.0,46,-99.99,,,0.00,Acu-Link.com,2013-02-01 23:43:00,
2013-02-01 15:58:00,64.9,44.2,29.81,ENE,67,1.7,-999.0,47,-99.99,,,0.00,Acu-Link.com,2013-02-01 23:58:00,
2013-02-01 16:13:00,64.2,44.1,29.81,SSE,157,1.1,-999.0,48,-99.99,,,0.00,Acu-Link.com,2013-02-02 00:13:00,
2013-02-01 16:29:00,63.7,44.7,29.81,North,0,0.0,-999.0,50,-99.99,,,0.00,Acu-Link.com,2013-02-02 00:29:00,
2013-02-01 16:44:00,63.3,43.8,29.81,SSE,157,1.1,-999.0,49,-99.99,,,0.00,Acu-Link.com,2013-02-02 00:44:00,
2013-02-01 16:59:00,63.0,45.6,29.81,SSE,157,0.0,-999.0,53,-99.99,,,0.00,Acu-Link.com,2013-02-02 00:59:00,
2013-02-01 17:14:00,61.9,44.1,29.83,ESE,112,0.0,-999.0,52,-99.99,,,0.00,Acu-Link.com,2013-02-02 01:14:00,
2013-02-01 17:29:00,60.3,42.6,29.83,ESE,112,1.7,-999.0,52,-99.99,,,0.00,Acu-Link.com,2013-02-02 01:29:00,
2013-02-01 17:45:00,59.5,43.3,29.84,South,180,0.0,-999.0,55,-99.99,,,0.00,Acu-Link.com,2013-02-02 01:45:00,
2013-02-01 18:00:00,57.9,43.2,29.83,NNE,22,1.1,-999.0,58,-99.99,,,0.00,Acu-Link.com,2013-02-02 02:00:00,
2013-02-01 18:15:00,57.2,43.0,29.84,South,180,2.2,-999.0,59,-99.99,,,0.00,Acu-Link.com,2013-02-02 02:15:00,
2013-02-01 18:30:00,56.1,43.3,29.84,NNE,22,1.7,-999.0,62,-99.99,,,0.00,Acu-Link.com,2013-02-02 02:30:00,
2013-02-01 18:46:00,55.4,43.0,29.85,SSW,202,1.1,-999.0,63,-99.99,,,0.00,Acu-Link.com,2013-02-02 02:46:00,
2013-02-01 19:01:00,54.9,43.0,29.86,South,180,3.7,-999.0,64,-99.99,,,0.00,Acu-Link.com,2013-02-02 03:01:00,
2013-02-01 19:16:00,54.5,42.6,29.86,South,180,2.7,-999.0,64,-99.99,,,0.00,Acu-Link.com,2013-02-02 03:16:00,
2013-02-01 19:31:00,53.2,43.7,29.87,NNE,22,0.0,-999.0,70,-99.99,,,0.00,Acu-Link.com,2013-02-02 03:31:00,
2013-02-01 19:46:00,52.5,43.0,29.87,WNW,292,0.0,-999.0,70,-99.99,,,0.00,Acu-Link.com,2013-02-02 03:46:00,
2013-02-01 20:02:00,52.2,42.7,29.86,South,180,0.0,-999.0,70,-99.99,,,0.00,Acu-Link.com,2013-02-02 04:02:00,
2013-02-01 20:17:00,53.1,42.8,29.87,South,180,2.7,-999.0,68,-99.99,,,0.00,Acu-Link.com,2013-02-02 04:17:00,
2013-02-01 20:32:00,52.2,42.7,29.88,SSW,202,0.0,-999.0,70,-99.99,,,0.00,Acu-Link.com,2013-02-02 04:32:00,
2013-02-01 20:47:00,51.4,41.9,29.88,South,180,0.0,-999.0,70,-99.99,,,0.00,Acu-Link.com,2013-02-02 04:47:00,
2013-02-01 21:02:00,52.5,41.9,29.88,SSW,202,2.2,-999.0,67,-99.99,,,0.00,Acu-Link.com,2013-02-02 05:02:00,
2013-02-01 21:18:00,52.7,42.4,29.89,SSE,157,1.7,-999.0,68,-99.99,,,0.00,Acu-Link.com,2013-02-02 05:18:00,
2013-02-01 21:33:00,52.0,42.5,29.88,NNW,337,0.0,-999.0,70,-99.99,,,0.00,Acu-Link.com,2013-02-02 05:33:00,
2013-02-01 21:48:00,51.4,42.3,29.88,SW,225,0.0,-999.0,71,-99.99,,,0.00,Acu-Link.com,2013-02-02 05:48:00,
2013-02-01 22:03:00,53.1,42.0,29.89,South,180,2.2,-999.0,66,-99.99,,,0.00,Acu-Link.com,2013-02-02 06:03:00,
2013-02-01 22:18:00,51.8,41.6,29.89,NE,45,0.0,-999.0,68,-99.99,,,0.00,Acu-Link.com,2013-02-02 06:18:00,
2013-02-01 22:34:00,51.3,41.5,29.90,East,90,0.0,-999.0,69,-99.99,,,0.00,Acu-Link.com,2013-02-02 06:34:00,
2013-02-01 22:49:00,52.2,42.3,29.91,South,180,2.7,-999.0,69,-99.99,,,0.00,Acu-Link.com,2013-02-02 06:49:00,
2013-02-01 23:04:00,52.9,41.9,29.90,East,90,0.0,-999.0,66,-99.99,,,0.00,Acu-Link.com,2013-02-02 07:04:00,
2013-02-01 23:19:00,50.2,41.9,29.91,ENE,67,1.7,-999.0,73,-99.99,,,0.00,Acu-Link.com,2013-02-02 07:19:00,
2013-02-01 23:35:00,49.1,41.9,29.91,East,90,2.2,-999.0,76,-99.99,,,0.00,Acu-Link.com,2013-02-02 07:35:00,
2013-02-01 23:50:00,49.5,41.9,29.91,South,180,0.0,-999.0,75,-99.99,,,0.00,Acu-Link.com,2013-02-02 07:50:00,